createdAt,value
2018-07-07T00:00:18.408Z,14.70
2018-07-07T00:02:46.658Z,14.60
2018-07-07T00:05:14.914Z,14.60
2018-07-07T00:07:43.214Z,14.50
2018-07-07T00:10:12.384Z,14.50
2018-07-07T00:12:41.215Z,14.50
2018-07-07T00:15:12.536Z,14.50
2018-07-07T00:17:41.412Z,14.60
2018-07-07T00:20:09.602Z,14.60
2018-07-07T00:22:37.916Z,14.70
2018-07-07T00:25:10.419Z,14.80
2018-07-07T00:27:38.820Z,14.80
2018-07-07T00:30:07.049Z,14.90
2018-07-07T00:32:35.286Z,14.90
2018-07-07T00:35:03.817Z,14.80
2018-07-07T00:37:32.060Z,14.80
2018-07-07T00:40:00.291Z,14.80
2018-07-07T00:42:28.547Z,14.80
2018-07-07T00:44:56.812Z,14.80
2018-07-07T00:47:25.057Z,14.90
2018-07-07T00:49:53.313Z,15.10
2018-07-07T00:52:21.560Z,15.20
2018-07-07T00:54:49.835Z,15.30
2018-07-07T00:57:18.844Z,15.30
2018-07-07T00:59:47.130Z,15.30
2018-07-07T01:02:20.359Z,15.20
2018-07-07T01:04:50.448Z,15.10
2018-07-07T01:07:18.717Z,15.10
2018-07-07T01:09:49.076Z,15.10
2018-07-07T01:12:17.531Z,15.10
2018-07-07T01:14:46.582Z,15.10
2018-07-07T01:17:14.823Z,15.20
2018-07-07T01:19:43.064Z,15.20
2018-07-07T01:22:12.681Z,15.30
2018-07-07T01:24:41.468Z,15.40
2018-07-07T01:27:09.729Z,15.50
2018-07-07T01:32:06.601Z,15.50
2018-07-07T01:37:02.867Z,15.50
2018-07-07T01:39:31.268Z,15.40
2018-07-07T01:41:59.492Z,15.40
2018-07-07T01:44:28.567Z,15.30
2018-07-07T01:46:56.803Z,15.30
2018-07-07T01:49:25.577Z,15.30
2018-07-07T01:51:53.983Z,15.20
2018-07-07T01:54:22.191Z,15.20
2018-07-07T01:56:50.465Z,15.20
2018-07-07T01:59:18.688Z,15.10
2018-07-07T02:01:47.323Z,15.00
2018-07-07T02:04:16.740Z,14.80
2018-07-07T02:06:45.308Z,14.80
2018-07-07T02:09:14.190Z,14.70
2018-07-07T02:11:42.496Z,14.60
2018-07-07T02:14:12.775Z,14.60
2018-07-07T02:16:41.010Z,14.60
2018-07-07T02:19:09.292Z,14.50
2018-07-07T02:21:37.539Z,14.50
2018-07-07T02:24:06.058Z,14.50
2018-07-07T02:26:34.313Z,14.50
2018-07-07T02:29:02.560Z,14.50
2018-07-07T02:31:30.851Z,14.50
2018-07-07T02:33:59.067Z,14.40
2018-07-07T02:36:27.413Z,14.40
2018-07-07T02:41:23.675Z,14.30
2018-07-07T02:43:52.152Z,14.30
2018-07-07T02:46:20.485Z,14.30
2018-07-07T02:48:48.813Z,14.30
2018-07-07T02:51:17.068Z,14.30
2018-07-07T02:56:13.311Z,14.40
2018-07-07T02:58:41.561Z,14.50
2018-07-07T03:01:09.839Z,14.60
2018-07-07T03:03:38.110Z,14.60
2018-07-07T03:06:06.393Z,14.60
2018-07-07T03:08:34.659Z,14.50
2018-07-07T03:11:03.394Z,14.50
2018-07-07T03:13:31.672Z,14.40
2018-07-07T03:15:59.883Z,14.20
2018-07-07T03:18:28.441Z,14.10
2018-07-07T03:20:57.123Z,14.00
2018-07-07T03:23:25.395Z,13.90
2018-07-07T03:25:53.767Z,13.90
2018-07-07T03:28:22.023Z,13.90
2018-07-07T03:30:50.266Z,14.00
2018-07-07T03:33:18.788Z,14.00
2018-07-07T03:35:47.048Z,14.20
2018-07-07T03:38:15.298Z,14.10
2018-07-07T03:40:43.519Z,14.20
2018-07-07T03:43:12.130Z,14.20
2018-07-07T03:45:40.432Z,14.10
2018-07-07T03:48:09.055Z,14.20
2018-07-07T03:50:37.628Z,14.30
2018-07-07T03:53:06.033Z,14.40
2018-07-07T03:55:34.319Z,14.50
2018-07-07T03:58:02.695Z,14.60
2018-07-07T04:00:30.993Z,14.70
2018-07-07T04:02:59.263Z,14.80
2018-07-07T04:05:27.559Z,14.90
2018-07-07T04:07:55.838Z,15.10
2018-07-07T04:10:24.096Z,15.30
2018-07-07T04:12:52.346Z,15.50
2018-07-07T04:15:20.586Z,15.80
2018-07-07T04:17:48.812Z,16.00
2018-07-07T04:20:17.060Z,16.10
2018-07-07T04:22:45.402Z,16.30
2018-07-07T04:25:13.599Z,16.30
2018-07-07T04:27:41.975Z,16.40
2018-07-07T04:30:10.204Z,16.40
2018-07-07T04:32:38.459Z,16.50
2018-07-07T04:35:07.179Z,16.70
2018-07-07T04:37:35.508Z,16.80
2018-07-07T04:42:31.840Z,17.00
2018-07-07T04:45:00.044Z,17.10
2018-07-07T04:47:28.636Z,17.20
2018-07-07T04:49:57.249Z,17.30
2018-07-07T04:52:25.629Z,17.50
2018-07-07T04:54:53.823Z,17.50
2018-07-07T04:57:22.044Z,17.70
2018-07-07T04:59:50.288Z,17.80
2018-07-07T05:02:18.548Z,17.90
2018-07-07T05:04:46.785Z,18.00
2018-07-07T05:07:15.107Z,18.10
2018-07-07T05:09:43.364Z,18.10
2018-07-07T05:12:11.979Z,18.20
2018-07-07T05:14:40.187Z,18.30
2018-07-07T05:17:08.895Z,18.50
2018-07-07T05:19:37.058Z,18.60
2018-07-07T05:22:05.344Z,18.50
2018-07-07T05:24:33.583Z,18.40
2018-07-07T05:27:02.118Z,18.30
2018-07-07T05:29:30.338Z,18.30
2018-07-07T05:31:58.615Z,18.40
2018-07-07T05:36:54.873Z,18.30
2018-07-07T05:39:23.120Z,18.20
2018-07-07T05:41:51.411Z,18.10
2018-07-07T05:44:19.672Z,18.00
2018-07-07T05:46:47.931Z,18.00
2018-07-07T05:49:16.442Z,17.90
2018-07-07T05:51:44.732Z,17.90
2018-07-07T05:54:13.007Z,17.90
2018-07-07T05:56:41.242Z,18.00
2018-07-07T05:59:09.466Z,18.10
2018-07-07T06:01:37.728Z,18.20
2018-07-07T06:04:05.995Z,18.30
2018-07-07T06:06:34.263Z,18.50
2018-07-07T06:09:02.515Z,18.70
2018-07-07T06:11:31.316Z,18.80
2018-07-07T06:13:59.639Z,19.10
2018-07-07T06:16:27.848Z,19.50
2018-07-07T06:18:56.091Z,19.80
2018-07-07T06:21:24.312Z,20.20
2018-07-07T06:23:52.559Z,20.30
2018-07-07T06:26:20.855Z,20.20
2018-07-07T06:28:49.519Z,20.10
2018-07-07T06:31:17.731Z,20.10
2018-07-07T06:33:48.788Z,20.00
2018-07-07T06:36:17.045Z,19.90
2018-07-07T06:38:45.283Z,20.10
2018-07-07T06:41:13.580Z,20.30
2018-07-07T06:43:41.840Z,20.60
2018-07-07T06:46:10.096Z,21.00
2018-07-07T06:48:38.348Z,21.40
2018-07-07T06:51:06.639Z,21.80
2018-07-07T06:53:34.933Z,21.90
2018-07-07T06:56:03.188Z,21.80
2018-07-07T06:58:31.412Z,21.50
2018-07-07T07:00:59.631Z,21.40
2018-07-07T07:03:28.045Z,21.20
2018-07-07T07:05:56.263Z,20.90
2018-07-07T07:08:24.868Z,20.80
2018-07-07T07:10:56.600Z,20.80
2018-07-07T07:13:24.806Z,21.00
2018-07-07T07:15:54.099Z,21.20
2018-07-07T07:18:22.336Z,21.40
2018-07-07T07:20:51.263Z,21.70
2018-07-07T07:23:19.939Z,22.20
2018-07-07T07:25:48.163Z,23.40
2018-07-07T07:28:16.426Z,24.50
2018-07-07T07:30:44.678Z,25.20
2018-07-07T07:33:12.939Z,26.20
2018-07-07T07:35:41.202Z,27.10
2018-07-07T07:38:09.482Z,28.00
2018-07-07T07:40:38.151Z,28.90
2018-07-07T07:43:06.431Z,29.60
2018-07-07T07:45:34.684Z,29.90
2018-07-07T07:48:02.967Z,29.00
2018-07-07T07:50:31.192Z,29.00
2018-07-07T07:52:59.444Z,29.50
2018-07-07T07:55:28.514Z,30.20
2018-07-07T07:57:56.748Z,30.50
2018-07-07T08:00:24.987Z,30.40
2018-07-07T08:02:53.215Z,30.00
2018-07-07T08:05:21.420Z,30.00
2018-07-07T08:07:49.974Z,29.70
2018-07-07T08:10:18.286Z,29.90
2018-07-07T08:12:46.559Z,29.60
2018-07-07T08:15:15.335Z,29.90
2018-07-07T08:17:43.548Z,29.00
2018-07-07T08:20:11.805Z,28.90
2018-07-07T08:22:40.029Z,28.90
2018-07-07T08:25:08.258Z,29.70
2018-07-07T08:27:36.558Z,30.20
2018-07-07T08:30:05.159Z,30.80
2018-07-07T08:35:01.632Z,31.80
2018-07-07T08:37:29.948Z,31.70
2018-07-07T08:39:58.230Z,31.50
2018-07-07T08:42:26.525Z,31.30
2018-07-07T08:44:54.744Z,31.50
2018-07-07T08:47:22.999Z,32.00
2018-07-07T08:49:51.244Z,31.80
2018-07-07T08:52:19.504Z,32.20
2018-07-07T08:54:47.846Z,32.70
2018-07-07T08:57:16.097Z,32.30
2018-07-07T08:59:44.611Z,31.80
2018-07-07T09:02:12.847Z,31.80
2018-07-07T09:04:41.104Z,31.00
2018-07-07T09:07:09.295Z,31.40
2018-07-07T09:09:37.948Z,31.80
2018-07-07T09:12:06.267Z,31.50
2018-07-07T09:14:34.516Z,31.80
2018-07-07T09:17:02.763Z,32.70
2018-07-07T09:19:31.048Z,33.20
2018-07-07T09:21:59.355Z,33.70
2018-07-07T09:24:27.665Z,33.50
2018-07-07T09:26:55.896Z,33.20
2018-07-07T09:29:24.143Z,32.80
2018-07-07T09:31:52.385Z,33.10
2018-07-07T09:34:20.656Z,32.90
2018-07-07T09:36:48.896Z,33.00
2018-07-07T09:39:17.140Z,33.20
2018-07-07T09:41:45.387Z,33.30
2018-07-07T09:44:13.692Z,33.60
2018-07-07T09:46:41.865Z,34.30
2018-07-07T09:49:10.163Z,34.10
2018-07-07T09:51:38.456Z,34.30
2018-07-07T09:54:06.695Z,33.80
2018-07-07T09:56:34.950Z,33.90
2018-07-07T10:01:31.439Z,33.00
2018-07-07T10:03:59.755Z,32.90
2018-07-07T10:06:27.982Z,33.20
2018-07-07T10:08:56.262Z,33.20
2018-07-07T10:11:24.630Z,33.20
2018-07-07T10:13:52.970Z,32.50
2018-07-07T10:16:21.214Z,32.20
2018-07-07T10:18:49.473Z,32.40
2018-07-07T10:21:17.678Z,31.90
2018-07-07T10:23:45.926Z,31.90
2018-07-07T10:26:14.229Z,32.10
2018-07-07T10:28:42.414Z,32.10
2018-07-07T10:31:10.743Z,31.90
2018-07-07T10:33:38.996Z,32.00
2018-07-07T10:36:07.304Z,32.30
2018-07-07T10:38:35.587Z,32.80
2018-07-07T10:41:03.871Z,33.10
2018-07-07T10:43:32.088Z,33.10
2018-07-07T10:46:00.489Z,32.80
2018-07-07T10:48:28.671Z,32.40
2018-07-07T10:50:57.514Z,32.50
2018-07-07T10:53:25.775Z,32.70
2018-07-07T10:55:54.067Z,32.60
2018-07-07T10:58:22.313Z,32.30
2018-07-07T11:00:50.655Z,32.60
2018-07-07T11:03:19.142Z,33.30
2018-07-07T11:05:47.374Z,33.10
2018-07-07T11:08:15.615Z,33.30
2018-07-07T11:10:43.927Z,33.40
2018-07-07T11:13:12.179Z,33.00
2018-07-07T11:15:40.468Z,32.90
2018-07-07T11:18:09.358Z,32.80
2018-07-07T11:20:37.597Z,32.40
2018-07-07T11:23:06.303Z,32.80
2018-07-07T11:25:34.636Z,33.10
2018-07-07T11:28:02.857Z,33.40
2018-07-07T11:30:31.114Z,33.40
2018-07-07T11:32:59.383Z,33.30
2018-07-07T11:35:27.686Z,33.60
2018-07-07T11:37:56.141Z,34.00
2018-07-07T11:40:24.443Z,33.50
2018-07-07T11:42:53.538Z,33.70
2018-07-07T11:45:21.932Z,34.30
2018-07-07T11:47:50.495Z,33.90
2018-07-07T11:50:18.797Z,33.80
2018-07-07T11:52:47.004Z,33.70
2018-07-07T11:55:15.325Z,32.80
2018-07-07T11:57:43.662Z,32.20
2018-07-07T12:00:12.118Z,31.40
2018-07-07T12:02:40.356Z,30.20
2018-07-07T12:05:08.655Z,30.00
2018-07-07T12:07:36.994Z,30.00
2018-07-07T12:10:05.465Z,30.10
2018-07-07T12:12:33.967Z,30.70
2018-07-07T12:15:02.285Z,31.30
2018-07-07T12:17:30.597Z,32.40
2018-07-07T12:19:58.794Z,33.10
2018-07-07T12:22:27.359Z,32.60
2018-07-07T12:24:55.725Z,32.30
2018-07-07T12:27:23.867Z,31.70
2018-07-07T12:29:52.349Z,31.10
2018-07-07T12:32:21.051Z,30.70
2018-07-07T12:34:49.515Z,30.90
2018-07-07T12:37:17.883Z,30.90
2018-07-07T12:39:46.148Z,30.80
2018-07-07T12:42:14.420Z,31.40
2018-07-07T12:44:42.826Z,31.90
2018-07-07T12:47:11.519Z,32.00
2018-07-07T12:49:39.799Z,32.40
2018-07-07T12:52:08.051Z,32.60
2018-07-07T12:54:36.289Z,32.50
2018-07-07T12:57:04.560Z,32.70
2018-07-07T12:59:32.789Z,32.90
2018-07-07T13:02:01.019Z,32.50
2018-07-07T13:04:29.280Z,31.60
2018-07-07T13:06:57.536Z,31.30
2018-07-07T13:09:25.827Z,30.90
2018-07-07T13:11:54.791Z,30.80
2018-07-07T13:14:23.321Z,31.20
2018-07-07T13:16:51.533Z,31.80
2018-07-07T13:19:19.791Z,32.20
2018-07-07T13:21:48.031Z,32.40
2018-07-07T13:24:16.271Z,32.40
2018-07-07T13:26:44.472Z,31.90
2018-07-07T13:29:13.123Z,31.40
2018-07-07T13:31:41.423Z,30.90
2018-07-07T13:34:09.692Z,30.40
2018-07-07T13:36:38.097Z,30.00
2018-07-07T13:39:07.373Z,29.70
2018-07-07T13:41:35.567Z,29.50
2018-07-07T13:44:03.817Z,29.90
2018-07-07T13:46:32.107Z,30.90
2018-07-07T13:49:00.336Z,32.20
2018-07-07T13:51:28.560Z,33.10
2018-07-07T13:53:56.854Z,34.00
2018-07-07T13:56:25.099Z,34.00
2018-07-07T13:58:53.634Z,33.00
2018-07-07T14:01:21.851Z,32.30
2018-07-07T14:03:50.131Z,31.30
2018-07-07T14:06:18.371Z,30.90
2018-07-07T14:08:46.572Z,30.50
2018-07-07T14:11:14.851Z,30.40
2018-07-07T14:13:43.282Z,30.30
2018-07-07T14:16:11.548Z,30.10
2018-07-07T14:18:39.812Z,30.10
2018-07-07T14:21:08.012Z,30.10
2018-07-07T14:23:36.404Z,30.10
2018-07-07T14:26:04.593Z,30.50
2018-07-07T14:28:32.941Z,31.10
2018-07-07T14:31:01.193Z,32.80
2018-07-07T14:33:29.482Z,33.80
2018-07-07T14:35:57.797Z,33.40
2018-07-07T14:38:32.060Z,33.00
2018-07-07T14:41:08.036Z,32.40
2018-07-07T14:43:49.054Z,31.90
2018-07-07T14:46:17.347Z,32.30
2018-07-07T14:48:45.599Z,33.80
2018-07-07T14:51:13.937Z,33.60
2018-07-07T14:53:42.188Z,33.20
2018-07-07T14:56:10.451Z,32.10
2018-07-07T14:58:38.767Z,31.00
2018-07-07T15:01:07.435Z,30.50
2018-07-07T15:03:35.659Z,30.40
2018-07-07T15:06:03.935Z,30.20
2018-07-07T15:08:32.131Z,30.20
2018-07-07T15:11:00.347Z,30.00
2018-07-07T15:13:28.588Z,29.90
2018-07-07T15:15:56.820Z,29.80
2018-07-07T15:18:25.127Z,30.00
2018-07-07T15:20:53.673Z,29.90
2018-07-07T15:23:22.403Z,29.60
2018-07-07T15:25:50.687Z,29.50
2018-07-07T15:28:18.970Z,29.60
2018-07-07T15:30:47.324Z,29.50
2018-07-07T15:33:15.823Z,30.20
2018-07-07T15:35:44.025Z,30.40
2018-07-07T15:38:12.248Z,30.50
2018-07-07T15:40:40.547Z,30.20
2018-07-07T15:43:08.824Z,30.80
2018-07-07T15:45:37.027Z,31.30
2018-07-07T15:48:07.551Z,31.30
2018-07-07T15:50:35.890Z,31.80
2018-07-07T15:53:04.162Z,32.00
2018-07-07T15:55:32.430Z,32.70
2018-07-07T15:58:00.935Z,33.00
2018-07-07T16:00:29.396Z,33.80
2018-07-07T16:02:57.868Z,34.50
2018-07-07T16:05:26.210Z,35.10
2018-07-07T16:07:54.475Z,35.40
2018-07-07T16:10:22.908Z,34.10
2018-07-07T16:12:51.155Z,32.80
2018-07-07T16:15:19.459Z,31.30
2018-07-07T16:17:47.977Z,30.70
2018-07-07T16:20:16.910Z,31.30
2018-07-07T16:22:45.217Z,32.30
2018-07-07T16:25:13.482Z,33.40
2018-07-07T16:27:41.712Z,34.70
2018-07-07T16:30:10.008Z,34.60
2018-07-07T16:32:38.247Z,34.80
2018-07-07T16:35:08.415Z,35.10
2018-07-07T16:37:36.656Z,35.00
2018-07-07T16:40:05.345Z,34.90
2018-07-07T16:42:36.116Z,34.40
2018-07-07T16:45:04.809Z,34.10
2018-07-07T16:47:33.043Z,34.20
2018-07-07T16:50:01.336Z,34.00
2018-07-07T16:52:29.858Z,33.80
2018-07-07T16:54:58.790Z,33.50
2018-07-07T16:57:29.883Z,32.20
2018-07-07T16:59:58.655Z,31.10
2018-07-07T17:02:26.896Z,30.60
2018-07-07T17:04:55.725Z,30.10
2018-07-07T17:07:23.951Z,29.70
2018-07-07T17:09:52.255Z,29.20
2018-07-07T17:12:20.575Z,29.10
2018-07-07T17:14:48.767Z,29.20
2018-07-07T17:17:17.923Z,29.30
2018-07-07T17:19:46.156Z,29.10
2018-07-07T17:22:14.468Z,28.70
2018-07-07T17:24:43.304Z,28.00
2018-07-07T17:27:11.554Z,27.50
2018-07-07T17:29:39.779Z,27.30
2018-07-07T17:32:08.182Z,26.90
2018-07-07T17:34:36.399Z,26.30
2018-07-07T17:37:05.129Z,25.90
2018-07-07T17:39:33.332Z,25.60
2018-07-07T17:42:01.654Z,25.50
2018-07-07T17:44:29.968Z,25.50
2018-07-07T17:46:58.595Z,25.60
2018-07-07T17:49:26.950Z,25.40
2018-07-07T17:51:55.456Z,25.10
2018-07-07T17:54:23.807Z,24.90
2018-07-07T17:56:52.362Z,24.80
2018-07-07T17:59:21.059Z,24.60
2018-07-07T18:01:49.345Z,24.30
2018-07-07T18:04:17.572Z,24.00
2018-07-07T18:06:45.829Z,23.70
2018-07-07T18:09:14.098Z,23.50
2018-07-07T18:11:42.530Z,23.50
2018-07-07T18:14:11.453Z,23.30
2018-07-07T18:16:39.716Z,23.20
2018-07-07T18:19:07.985Z,23.00
2018-07-07T18:21:36.243Z,22.80
2018-07-07T18:24:04.879Z,22.70
2018-07-07T18:26:33.127Z,22.60
2018-07-07T18:29:03.000Z,22.50
2018-07-07T18:31:31.278Z,22.50
2018-07-07T18:33:59.513Z,22.40
2018-07-07T18:36:27.786Z,22.40
2018-07-07T18:38:56.004Z,22.80
2018-07-07T18:41:24.280Z,23.00
2018-07-07T18:43:52.525Z,23.10
2018-07-07T18:46:20.755Z,23.30
2018-07-07T18:48:49.068Z,23.40
2018-07-07T18:51:17.310Z,23.40
2018-07-07T18:53:45.972Z,23.40
2018-07-07T18:56:14.252Z,23.40
2018-07-07T18:58:42.562Z,23.30
2018-07-07T19:01:11.040Z,23.30
2018-07-07T19:03:39.441Z,23.30
2018-07-07T19:06:07.751Z,23.20
2018-07-07T19:08:36.190Z,23.10
2018-07-07T19:11:04.842Z,23.00
2018-07-07T19:13:33.065Z,22.90
2018-07-07T19:16:01.280Z,22.90
2018-07-07T19:18:29.542Z,22.80
2018-07-07T19:21:03.727Z,22.70
2018-07-07T19:23:37.409Z,22.70
2018-07-07T19:26:11.261Z,22.70
2018-07-07T19:28:39.498Z,22.60
2018-07-07T19:31:07.700Z,22.50
2018-07-07T19:33:41.386Z,22.40
2018-07-07T19:36:15.503Z,22.30
2018-07-07T19:38:43.723Z,22.40
2018-07-07T19:41:11.920Z,22.30
2018-07-07T19:46:08.168Z,22.20
2018-07-07T19:48:36.367Z,22.20
2018-07-07T19:51:04.636Z,22.10
2018-07-07T19:53:32.944Z,22.00
2018-07-07T19:56:01.227Z,21.90
2018-07-07T19:58:29.412Z,21.80
2018-07-07T20:00:57.599Z,21.80
2018-07-07T20:03:26.567Z,21.70
2018-07-07T20:05:54.775Z,21.70
2018-07-07T20:08:24.891Z,21.60
2018-07-07T20:10:53.142Z,21.60
2018-07-07T20:13:22.247Z,21.50
2018-07-07T20:16:16.571Z,21.40
2018-07-07T20:19:02.173Z,21.30
2018-07-07T20:21:47.574Z,21.30
2018-07-07T20:24:17.838Z,21.10
2018-07-07T20:26:52.004Z,21.10
2018-07-07T20:29:20.503Z,21.00
2018-07-07T20:31:51.886Z,20.80
2018-07-07T20:34:25.435Z,20.70
2018-07-07T20:36:54.109Z,20.70
2018-07-07T20:39:23.133Z,20.50
2018-07-07T20:41:52.436Z,20.40
2018-07-07T20:44:20.724Z,20.30
2018-07-07T20:46:49.274Z,20.30
2018-07-07T20:49:17.756Z,20.30
2018-07-07T20:51:45.967Z,20.30
2018-07-07T20:54:14.275Z,20.50
2018-07-07T20:56:42.520Z,20.50
2018-07-07T20:59:10.750Z,20.50
2018-07-07T21:01:39.013Z,20.50
2018-07-07T21:04:07.239Z,20.40
2018-07-07T21:06:35.518Z,20.30
2018-07-07T21:09:04.528Z,20.40
2018-07-07T21:11:32.819Z,20.30
2018-07-07T21:14:01.076Z,20.30
2018-07-07T21:16:29.310Z,20.10
2018-07-07T21:18:58.087Z,20.10
2018-07-07T21:21:26.353Z,20.00
2018-07-07T21:23:54.596Z,19.90
2018-07-07T21:26:23.119Z,19.80
2018-07-07T21:28:51.380Z,19.70
2018-07-07T21:31:19.555Z,19.60
2018-07-07T21:33:47.845Z,19.40
2018-07-07T21:36:16.059Z,19.30
2018-07-07T21:38:44.309Z,19.20
2018-07-07T21:41:12.561Z,19.10
2018-07-07T21:43:40.831Z,19.00
2018-07-07T21:46:09.007Z,19.00
2018-07-07T21:48:37.350Z,18.90
2018-07-07T21:51:05.663Z,18.90
2018-07-07T21:53:34.003Z,18.90
2018-07-07T21:56:02.209Z,19.00
2018-07-07T21:58:30.687Z,19.10
2018-07-07T22:03:44.219Z,19.00
2018-07-07T22:06:13.118Z,18.90
2018-07-07T22:08:41.425Z,18.70
2018-07-07T22:11:09.691Z,18.50
2018-07-07T22:13:37.932Z,18.40
2018-07-07T22:16:06.232Z,18.30
2018-07-07T22:18:34.479Z,18.30
2018-07-07T22:21:14.279Z,18.20
2018-07-07T22:23:42.538Z,18.10
2018-07-07T22:26:10.748Z,17.90
2018-07-07T22:28:39.120Z,17.70
2018-07-07T22:31:07.530Z,17.50
2018-07-07T22:33:35.913Z,17.30
2018-07-07T22:36:09.740Z,17.10
2018-07-07T22:38:43.497Z,17.00
2018-07-07T22:41:11.848Z,16.80
2018-07-07T22:43:40.163Z,16.60
2018-07-07T22:46:08.503Z,16.60
2018-07-07T22:48:36.867Z,16.50
2018-07-07T22:51:05.227Z,16.30
2018-07-07T22:53:33.744Z,16.20
2018-07-07T22:56:02.092Z,16.10
2018-07-07T22:58:30.387Z,16.00
2018-07-07T23:00:58.647Z,15.90
2018-07-07T23:03:26.874Z,15.80
2018-07-07T23:05:55.067Z,15.80
2018-07-07T23:08:24.464Z,15.70
2018-07-07T23:10:52.707Z,15.70
2018-07-07T23:13:20.929Z,15.60
2018-07-07T23:15:49.161Z,15.60
2018-07-07T23:18:17.392Z,15.50
2018-07-07T23:20:45.627Z,15.50
2018-07-07T23:23:13.823Z,15.40
2018-07-07T23:25:42.080Z,15.40
2018-07-07T23:28:10.315Z,15.30
2018-07-07T23:33:07.054Z,15.00
2018-07-07T23:35:35.259Z,14.90
2018-07-07T23:38:03.472Z,14.90
2018-07-07T23:40:31.699Z,14.90
2018-07-07T23:43:00.297Z,14.90
2018-07-07T23:45:28.888Z,14.90
2018-07-07T23:47:57.083Z,14.90
2018-07-07T23:50:25.312Z,14.80
2018-07-07T23:52:53.666Z,14.80
2018-07-07T23:55:22.300Z,14.70
2018-07-07T23:57:53.405Z,14.60
